CheckWX is a tool to help pilots better visualize weather data.  It is not intended as a substitute for an official pre-flight weather briefing.

18:39:21 UTC

KASG METAR
Springdale Municipal Airport
Springdale, Arkansas, USA
Current

51 mins ago

KASG 161748Z 10006KT 10SM BKN025 BKN035 12/07 A3006
Observed
Feb-16 @ 17:48 UTC
Wind
  • 100° at 6 KTS
Visibility
10 SM
Flight Rules
MVFR
Cloud Levels
  • Broken at 2,500' AGL
  • Broken at 3,500' AGL
Temperature
12°C / 54°F
Dewpoint
C / 45°F
Humidity
72%
Altimeter
30.06" Hg
Pressure
1017.92 hPa
Previous

2 hours ago

KASG 161648Z 09005KT 10SM OVC026 10/06 A3008
Observed
Feb-16 @ 16:48 UTC
Wind
  • 090° at 5 KTS
Visibility
10 SM
Flight Rules
MVFR
Cloud Levels
  • Overcast at 2,600' AGL
Temperature
10°C / 50°F
Dewpoint
C / 43°F
Humidity
76%
Altimeter
30.08" Hg
Pressure
1018.62 hPa
Previous

3 hours ago

KASG 161548Z 06005KT 10SM OVC029 07/04 A3008
Observed
Feb-16 @ 15:48 UTC
Wind
  • 060° at 5 KTS
Visibility
10 SM
Flight Rules
MVFR
Cloud Levels
  • Overcast at 2,900' AGL
Temperature
C / 45°F
Dewpoint
C / 39°F
Humidity
81%
Altimeter
30.08" Hg
Pressure
1018.62 hPa